Weather at Great Falls International Airport

Public forecast

Using degrees Fahrenheit for public forecast. Weather courtesy of forecast.io.

Current aviation weather report (METAR) for Great Falls International Airport

Report is more than 2 hours old.

2024/06/24 20:53 (retrieved 5 hours ago)

KGTF 242053Z 24019G32KT 10SM CLR 28/M01 A2985 RMK AO2 PK WND 23032/2048 SLP075 T02781011 58009

Aviation forecast (TAF) for Great Falls International Airport

2024/06/24 20:24 Ammendment (retrieved 6 hours ago)

TAF AMD KGTF 242022Z 2420/2518 25019G28KT P6SM SKC FM250300 30009KT P6SM SKC